Williamsburg, West Virginia
Current Conditions -  °F | °C
As of 10:35 PM on Monday 22 Dec 2014 (Local Time) from KLWB Reporting Station
Haze Haze  
Wind Chill: 33°   Ceiling: 400
Heat Index: 37°   Visibility: 3mi
Dew Point: 36°   Wind: 5mph
Humidity: 95%   Direction: 10°N
Pressure: 30.03"   Gusts: NA
Location:  37.97°N, 80.49°W
Report Text: KLWB 230335Z AUTO 01004KT 3SM BR OVC004 03/02 A3003 RMK AO2 T00280020
Loading
Personal Weather Stations






























Interactive Weather Map New forecast layout! Learn more

10-Day Weather Forecast

Advertisements
Track Severe Weather on mobile